sensor_id;sensor_type;location;lat;lon;timestamp;P1;durP1;ratioP1;P2;durP2;ratioP2
41927;SDS011;27616;51.420;6.788;2022-09-17T00:00:55;11.80;;;1.90;;
41927;SDS011;27616;51.420;6.788;2022-09-17T00:03:23;6.65;;;2.28;;
41927;SDS011;27616;51.420;6.788;2022-09-17T00:05:49;7.22;;;1.63;;
41927;SDS011;27616;51.420;6.788;2022-09-17T00:08:24;7.18;;;1.60;;
41927;SDS011;27616;51.420;6.788;2022-09-17T00:10:50;8.48;;;1.60;;
41927;SDS011;27616;51.420;6.788;2022-09-17T00:13:15;8.60;;;2.22;;
41927;SDS011;27616;51.420;6.788;2022-09-17T00:15:42;7.25;;;2.00;;
41927;SDS011;27616;51.420;6.788;2022-09-17T00:18:09;9.20;;;2.08;;
41927;SDS011;27616;51.420;6.788;2022-09-17T00:20:39;8.35;;;2.25;;
41927;SDS011;27616;51.420;6.788;2022-09-17T00:23:09;9.73;;;2.40;;
41927;SDS011;27616;51.420;6.788;2022-09-17T00:25:40;8.25;;;1.73;;
41927;SDS011;27616;51.420;6.788;2022-09-17T00:28:07;10.75;;;2.10;;
41927;SDS011;27616;51.420;6.788;2022-09-17T00:30:33;11.52;;;2.33;;
41927;SDS011;27616;51.420;6.788;2022-09-17T00:32:59;10.48;;;1.92;;
41927;SDS011;27616;51.420;6.788;2022-09-17T00:35:26;11.07;;;1.98;;
41927;SDS011;27616;51.420;6.788;2022-09-17T00:37:52;9.38;;;1.58;;
41927;SDS011;27616;51.420;6.788;2022-09-17T00:40:18;10.00;;;1.63;;
41927;SDS011;27616;51.420;6.788;2022-09-17T00:42:44;6.60;;;1.65;;
41927;SDS011;27616;51.420;6.788;2022-09-17T00:45:10;7.95;;;1.90;;
41927;SDS011;27616;51.420;6.788;2022-09-17T00:47:41;9.52;;;2.17;;
41927;SDS011;27616;51.420;6.788;2022-09-17T00:52:46;11.88;;;1.90;;
41927;SDS011;27616;51.420;6.788;2022-09-17T00:55:20;11.45;;;1.80;;
41927;SDS011;27616;51.420;6.788;2022-09-17T00:57:56;10.27;;;1.90;;
41927;SDS011;27616;51.420;6.788;2022-09-17T01:00:24;7.27;;;1.60;;
41927;SDS011;27616;51.420;6.788;2022-09-17T01:02:50;11.98;;;2.03;;
41927;SDS011;27616;51.420;6.788;2022-09-17T01:05:18;17.25;;;2.40;;
41927;SDS011;27616;51.420;6.788;2022-09-17T01:08:04;13.23;;;2.72;;
41927;SDS011;27616;51.420;6.788;2022-09-17T01:10:55;7.80;;;1.52;;
41927;SDS011;27616;51.420;6.788;2022-09-17T01:13:33;8.75;;;1.58;;
41927;SDS011;27616;51.420;6.788;2022-09-17T01:16:31;8.05;;;1.73;;
41927;SDS011;27616;51.420;6.788;2022-09-17T01:30:10;9.60;;;1.95;;
41927;SDS011;27616;51.420;6.788;2022-09-17T01:38:25;7.03;;;1.80;;
41927;SDS011;27616;51.420;6.788;2022-09-17T01:40:54;11.25;;;1.90;;
41927;SDS011;27616;51.420;6.788;2022-09-17T01:44:15;12.10;;;1.95;;
41927;SDS011;27616;51.420;6.788;2022-09-17T01:46:20;14.35;;;2.17;;
41927;SDS011;27616;51.420;6.788;2022-09-17T01:49:20;12.93;;;2.42;;
41927;SDS011;27616;51.420;6.788;2022-09-17T01:51:49;10.85;;;2.20;;
41927;SDS011;27616;51.420;6.788;2022-09-17T01:56:58;12.20;;;2.00;;
41927;SDS011;27616;51.420;6.788;2022-09-17T01:59:48;8.60;;;2.50;;
41927;SDS011;27616;51.420;6.788;2022-09-17T02:02:21;14.15;;;3.38;;
41927;SDS011;27616;51.420;6.788;2022-09-17T02:05:02;8.65;;;1.80;;
41927;SDS011;27616;51.420;6.788;2022-09-17T02:07:32;9.15;;;1.95;;
41927;SDS011;27616;51.420;6.788;2022-09-17T02:10:05;9.25;;;2.28;;
41927;SDS011;27616;51.420;6.788;2022-09-17T02:12:38;8.32;;;2.13;;
41927;SDS011;27616;51.420;6.788;2022-09-17T02:15:10;11.55;;;1.95;;
41927;SDS011;27616;51.420;6.788;2022-09-17T02:20:34;10.05;;;2.50;;
41927;SDS011;27616;51.420;6.788;2022-09-17T02:23:08;11.88;;;2.70;;
41927;SDS011;27616;51.420;6.788;2022-09-17T02:26:04;8.45;;;2.15;;
41927;SDS011;27616;51.420;6.788;2022-09-17T02:28:40;15.52;;;2.47;;
41927;SDS011;27616;51.420;6.788;2022-09-17T02:31:12;8.65;;;2.08;;
41927;SDS011;27616;51.420;6.788;2022-09-17T02:33:38;9.65;;;2.20;;
41927;SDS011;27616;51.420;6.788;2022-09-17T02:36:07;12.23;;;2.20;;
41927;SDS011;27616;51.420;6.788;2022-09-17T02:38:33;12.73;;;3.08;;
41927;SDS011;27616;51.420;6.788;2022-09-17T02:41:05;7.55;;;1.70;;
41927;SDS011;27616;51.420;6.788;2022-09-17T02:47:01;16.63;;;2.15;;
41927;SDS011;27616;51.420;6.788;2022-09-17T02:54:41;10.25;;;1.85;;
41927;SDS011;27616;51.420;6.788;2022-09-17T03:00:31;11.35;;;2.22;;
41927;SDS011;27616;51.420;6.788;2022-09-17T03:03:02;12.88;;;2.92;;
41927;SDS011;27616;51.420;6.788;2022-09-17T03:05:32;12.75;;;2.50;;
41927;SDS011;27616;51.420;6.788;2022-09-17T03:08:00;13.88;;;2.47;;
41927;SDS011;27616;51.420;6.788;2022-09-17T03:10:26;12.88;;;2.10;;
41927;SDS011;27616;51.420;6.788;2022-09-17T03:12:54;10.82;;;2.13;;
41927;SDS011;27616;51.420;6.788;2022-09-17T03:15:20;10.35;;;2.42;;
41927;SDS011;27616;51.420;6.788;2022-09-17T03:17:46;9.00;;;2.10;;
41927;SDS011;27616;51.420;6.788;2022-09-17T03:20:11;10.85;;;2.10;;
41927;SDS011;27616;51.420;6.788;2022-09-17T03:22:40;8.13;;;2.13;;
41927;SDS011;27616;51.420;6.788;2022-09-17T03:25:06;13.07;;;1.95;;
41927;SDS011;27616;51.420;6.788;2022-09-17T03:27:32;14.13;;;2.30;;
41927;SDS011;27616;51.420;6.788;2022-09-17T03:29:58;11.50;;;2.05;;
41927;SDS011;27616;51.420;6.788;2022-09-17T03:32:24;18.80;;;2.80;;
41927;SDS011;27616;51.420;6.788;2022-09-17T03:34:49;8.95;;;2.00;;
41927;SDS011;27616;51.420;6.788;2022-09-17T03:37:15;9.77;;;2.25;;
41927;SDS011;27616;51.420;6.788;2022-09-17T03:39:41;13.27;;;2.42;;
41927;SDS011;27616;51.420;6.788;2022-09-17T03:42:07;12.93;;;2.17;;
41927;SDS011;27616;51.420;6.788;2022-09-17T03:44:32;8.95;;;2.35;;
41927;SDS011;27616;51.420;6.788;2022-09-17T03:46:58;8.45;;;2.20;;
41927;SDS011;27616;51.420;6.788;2022-09-17T03:49:24;11.18;;;1.60;;
41927;SDS011;27616;51.420;6.788;2022-09-17T03:51:50;11.00;;;2.20;;
41927;SDS011;27616;51.420;6.788;2022-09-17T03:54:15;14.00;;;1.88;;
41927;SDS011;27616;51.420;6.788;2022-09-17T03:56:41;13.30;;;3.15;;
41927;SDS011;27616;51.420;6.788;2022-09-17T03:59:07;20.45;;;5.25;;
41927;SDS011;27616;51.420;6.788;2022-09-17T04:01:33;21.80;;;6.65;;
41927;SDS011;27616;51.420;6.788;2022-09-17T04:04:00;23.85;;;7.30;;
41927;SDS011;27616;51.420;6.788;2022-09-17T04:06:26;22.33;;;6.00;;
41927;SDS011;27616;51.420;6.788;2022-09-17T04:08:52;23.95;;;6.45;;
41927;SDS011;27616;51.420;6.788;2022-09-17T04:11:17;23.43;;;5.90;;
41927;SDS011;27616;51.420;6.788;2022-09-17T04:13:43;19.85;;;5.28;;
41927;SDS011;27616;51.420;6.788;2022-09-17T04:16:09;23.40;;;5.90;;
41927;SDS011;27616;51.420;6.788;2022-09-17T04:18:35;24.08;;;6.85;;
41927;SDS011;27616;51.420;6.788;2022-09-17T04:21:01;34.35;;;10.18;;
41927;SDS011;27616;51.420;6.788;2022-09-17T04:23:27;31.33;;;10.32;;
41927;SDS011;27616;51.420;6.788;2022-09-17T04:25:53;27.10;;;8.80;;
41927;SDS011;27616;51.420;6.788;2022-09-17T04:28:19;29.13;;;8.93;;
41927;SDS011;27616;51.420;6.788;2022-09-17T04:30:46;34.95;;;11.30;;
41927;SDS011;27616;51.420;6.788;2022-09-17T04:33:12;32.63;;;9.37;;
41927;SDS011;27616;51.420;6.788;2022-09-17T04:35:38;23.30;;;7.20;;
41927;SDS011;27616;51.420;6.788;2022-09-17T04:38:04;18.45;;;6.22;;
41927;SDS011;27616;51.420;6.788;2022-09-17T04:40:30;17.37;;;4.23;;
41927;SDS011;27616;51.420;6.788;2022-09-17T04:42:56;12.70;;;2.60;;
41927;SDS011;27616;51.420;6.788;2022-09-17T04:45:23;15.13;;;2.88;;
41927;SDS011;27616;51.420;6.788;2022-09-17T04:47:49;17.60;;;2.93;;
41927;SDS011;27616;51.420;6.788;2022-09-17T04:50:16;12.07;;;2.78;;
41927;SDS011;27616;51.420;6.788;2022-09-17T04:52:43;12.30;;;2.47;;
41927;SDS011;27616;51.420;6.788;2022-09-17T04:55:09;10.80;;;2.58;;
41927;SDS011;27616;51.420;6.788;2022-09-17T04:57:36;11.57;;;1.90;;
41927;SDS011;27616;51.420;6.788;2022-09-17T05:00:02;16.15;;;2.10;;
41927;SDS011;27616;51.420;6.788;2022-09-17T05:02:30;10.63;;;2.35;;
41927;SDS011;27616;51.420;6.788;2022-09-17T05:04:56;11.88;;;1.88;;
41927;SDS011;27616;51.420;6.788;2022-09-17T05:07:23;10.35;;;1.77;;
41927;SDS011;27616;51.420;6.788;2022-09-17T05:09:49;12.60;;;1.95;;
41927;SDS011;27616;51.420;6.788;2022-09-17T05:12:15;9.27;;;1.53;;
41927;SDS011;27616;51.420;6.788;2022-09-17T05:14:40;12.77;;;2.50;;
41927;SDS011;27616;51.420;6.788;2022-09-17T05:17:06;11.85;;;1.95;;
41927;SDS011;27616;51.420;6.788;2022-09-17T05:19:32;10.07;;;2.00;;
41927;SDS011;27616;51.420;6.788;2022-09-17T05:21:58;10.80;;;1.97;;
41927;SDS011;27616;51.420;6.788;2022-09-17T05:24:23;13.23;;;1.80;;
41927;SDS011;27616;51.420;6.788;2022-09-17T05:26:49;10.00;;;1.80;;
41927;SDS011;27616;51.420;6.788;2022-09-17T05:29:14;10.07;;;2.20;;
41927;SDS011;27616;51.420;6.788;2022-09-17T05:31:40;17.77;;;2.37;;
41927;SDS011;27616;51.420;6.788;2022-09-17T05:34:07;13.87;;;2.33;;
41927;SDS011;27616;51.420;6.788;2022-09-17T05:36:33;12.70;;;2.40;;
41927;SDS011;27616;51.420;6.788;2022-09-17T05:38:58;11.93;;;2.37;;
41927;SDS011;27616;51.420;6.788;2022-09-17T05:41:24;14.53;;;2.30;;
41927;SDS011;27616;51.420;6.788;2022-09-17T05:43:50;15.70;;;2.60;;
41927;SDS011;27616;51.420;6.788;2022-09-17T05:46:15;12.82;;;2.60;;
41927;SDS011;27616;51.420;6.788;2022-09-17T05:48:41;10.15;;;2.30;;
41927;SDS011;27616;51.420;6.788;2022-09-17T05:51:08;11.02;;;2.35;;
41927;SDS011;27616;51.420;6.788;2022-09-17T05:53:34;15.80;;;2.73;;
41927;SDS011;27616;51.420;6.788;2022-09-17T05:56:00;10.43;;;2.13;;
41927;SDS011;27616;51.420;6.788;2022-09-17T05:58:26;11.27;;;1.90;;
41927;SDS011;27616;51.420;6.788;2022-09-17T06:00:53;12.10;;;2.03;;
41927;SDS011;27616;51.420;6.788;2022-09-17T06:03:19;5.80;;;1.10;;
41927;SDS011;27616;51.420;6.788;2022-09-17T06:05:51;14.48;;;2.10;;
41927;SDS011;27616;51.420;6.788;2022-09-17T06:08:19;8.17;;;1.33;;
41927;SDS011;27616;51.420;6.788;2022-09-17T06:10:45;9.57;;;1.73;;
41927;SDS011;27616;51.420;6.788;2022-09-17T06:13:11;11.40;;;2.03;;
41927;SDS011;27616;51.420;6.788;2022-09-17T06:15:37;13.45;;;1.98;;
41927;SDS011;27616;51.420;6.788;2022-09-17T06:18:02;9.55;;;1.65;;
41927;SDS011;27616;51.420;6.788;2022-09-17T06:20:28;15.30;;;3.10;;
41927;SDS011;27616;51.420;6.788;2022-09-17T06:22:55;9.20;;;1.90;;
41927;SDS011;27616;51.420;6.788;2022-09-17T06:25:21;9.00;;;1.90;;
41927;SDS011;27616;51.420;6.788;2022-09-17T06:27:47;10.70;;;1.57;;
41927;SDS011;27616;51.420;6.788;2022-09-17T06:30:13;9.32;;;2.10;;
41927;SDS011;27616;51.420;6.788;2022-09-17T06:32:39;10.88;;;2.08;;
41927;SDS011;27616;51.420;6.788;2022-09-17T06:35:05;10.18;;;1.95;;
41927;SDS011;27616;51.420;6.788;2022-09-17T06:37:31;7.60;;;1.48;;
41927;SDS011;27616;51.420;6.788;2022-09-17T06:39:57;8.85;;;2.20;;
41927;SDS011;27616;51.420;6.788;2022-09-17T06:42:24;14.40;;;3.15;;
41927;SDS011;27616;51.420;6.788;2022-09-17T06:44:50;17.17;;;5.07;;
41927;SDS011;27616;51.420;6.788;2022-09-17T06:47:16;14.80;;;3.87;;
41927;SDS011;27616;51.420;6.788;2022-09-17T06:49:42;21.88;;;5.10;;
41927;SDS011;27616;51.420;6.788;2022-09-17T06:52:07;23.17;;;6.83;;
41927;SDS011;27616;51.420;6.788;2022-09-17T06:54:33;25.73;;;8.05;;
41927;SDS011;27616;51.420;6.788;2022-09-17T06:56:59;25.23;;;8.17;;
41927;SDS011;27616;51.420;6.788;2022-09-17T06:59:24;37.78;;;10.45;;
41927;SDS011;27616;51.420;6.788;2022-09-17T07:01:51;22.63;;;7.32;;
41927;SDS011;27616;51.420;6.788;2022-09-17T07:04:17;19.00;;;4.43;;
41927;SDS011;27616;51.420;6.788;2022-09-17T07:06:43;12.30;;;2.80;;
41927;SDS011;27616;51.420;6.788;2022-09-17T07:09:09;11.68;;;3.20;;
41927;SDS011;27616;51.420;6.788;2022-09-17T07:11:36;12.77;;;2.15;;
41927;SDS011;27616;51.420;6.788;2022-09-17T07:14:02;8.80;;;1.90;;
41927;SDS011;27616;51.420;6.788;2022-09-17T07:16:29;12.37;;;2.53;;
41927;SDS011;27616;51.420;6.788;2022-09-17T07:19:03;10.77;;;2.25;;
41927;SDS011;27616;51.420;6.788;2022-09-17T07:21:28;18.33;;;4.30;;
41927;SDS011;27616;51.420;6.788;2022-09-17T07:23:54;15.88;;;4.20;;
41927;SDS011;27616;51.420;6.788;2022-09-17T07:26:20;16.98;;;4.85;;
41927;SDS011;27616;51.420;6.788;2022-09-17T07:28:46;15.68;;;3.60;;
41927;SDS011;27616;51.420;6.788;2022-09-17T07:31:12;12.98;;;2.83;;
41927;SDS011;27616;51.420;6.788;2022-09-17T07:33:38;14.73;;;2.97;;
41927;SDS011;27616;51.420;6.788;2022-09-17T07:36:06;7.68;;;1.92;;
41927;SDS011;27616;51.420;6.788;2022-09-17T07:41:01;7.23;;;1.90;;
41927;SDS011;27616;51.420;6.788;2022-09-17T07:43:28;6.57;;;1.27;;
41927;SDS011;27616;51.420;6.788;2022-09-17T07:45:56;10.00;;;1.52;;
41927;SDS011;27616;51.420;6.788;2022-09-17T07:48:23;9.10;;;2.03;;
41927;SDS011;27616;51.420;6.788;2022-09-17T07:50:49;11.30;;;1.60;;
41927;SDS011;27616;51.420;6.788;2022-09-17T07:53:14;9.65;;;1.33;;
41927;SDS011;27616;51.420;6.788;2022-09-17T07:55:40;13.07;;;2.13;;
41927;SDS011;27616;51.420;6.788;2022-09-17T07:58:06;9.50;;;1.50;;
41927;SDS011;27616;51.420;6.788;2022-09-17T08:00:32;6.93;;;1.25;;
41927;SDS011;27616;51.420;6.788;2022-09-17T08:02:58;4.47;;;1.20;;
41927;SDS011;27616;51.420;6.788;2022-09-17T08:05:25;9.18;;;1.80;;
41927;SDS011;27616;51.420;6.788;2022-09-17T08:07:51;9.02;;;1.98;;
41927;SDS011;27616;51.420;6.788;2022-09-17T08:10:18;7.60;;;1.60;;
41927;SDS011;27616;51.420;6.788;2022-09-17T08:12:49;9.57;;;2.47;;
41927;SDS011;27616;51.420;6.788;2022-09-17T08:15:19;8.30;;;1.38;;
41927;SDS011;27616;51.420;6.788;2022-09-17T08:17:45;15.43;;;2.75;;
41927;SDS011;27616;51.420;6.788;2022-09-17T08:20:12;8.35;;;1.70;;
41927;SDS011;27616;51.420;6.788;2022-09-17T08:22:38;8.15;;;2.00;;
41927;SDS011;27616;51.420;6.788;2022-09-17T08:25:04;9.38;;;1.92;;
41927;SDS011;27616;51.420;6.788;2022-09-17T08:27:31;9.10;;;1.70;;
41927;SDS011;27616;51.420;6.788;2022-09-17T08:29:57;13.15;;;3.25;;
41927;SDS011;27616;51.420;6.788;2022-09-17T08:32:23;10.77;;;3.20;;
41927;SDS011;27616;51.420;6.788;2022-09-17T08:34:49;14.68;;;2.97;;
41927;SDS011;27616;51.420;6.788;2022-09-17T08:37:15;6.57;;;1.50;;
41927;SDS011;27616;51.420;6.788;2022-09-17T08:39:41;8.93;;;1.88;;
41927;SDS011;27616;51.420;6.788;2022-09-17T08:42:26;8.65;;;1.83;;
41927;SDS011;27616;51.420;6.788;2022-09-17T08:45:02;7.43;;;1.30;;
41927;SDS011;27616;51.420;6.788;2022-09-17T08:47:39;7.45;;;1.38;;
41927;SDS011;27616;51.420;6.788;2022-09-17T08:50:12;8.98;;;1.85;;
41927;SDS011;27616;51.420;6.788;2022-09-17T09:01:17;10.27;;;1.33;;
41927;SDS011;27616;51.420;6.788;2022-09-17T09:07:01;4.70;;;1.08;;
41927;SDS011;27616;51.420;6.788;2022-09-17T09:09:47;12.80;;;1.85;;
41927;SDS011;27616;51.420;6.788;2022-09-17T09:12:24;9.02;;;1.27;;
41927;SDS011;27616;51.420;6.788;2022-09-17T09:14:59;6.55;;;1.45;;
41927;SDS011;27616;51.420;6.788;2022-09-17T09:17:28;3.90;;;0.90;;
41927;SDS011;27616;51.420;6.788;2022-09-17T09:20:02;5.00;;;0.98;;
41927;SDS011;27616;51.420;6.788;2022-09-17T09:22:48;7.70;;;1.30;;
41927;SDS011;27616;51.420;6.788;2022-09-17T09:28:01;10.05;;;1.45;;
41927;SDS011;27616;51.420;6.788;2022-09-17T09:33:18;5.57;;;1.02;;
41927;SDS011;27616;51.420;6.788;2022-09-17T09:35:51;9.27;;;1.20;;
41927;SDS011;27616;51.420;6.788;2022-09-17T09:38:21;4.68;;;1.00;;
41927;SDS011;27616;51.420;6.788;2022-09-17T09:43:45;7.22;;;1.33;;
41927;SDS011;27616;51.420;6.788;2022-09-17T09:46:39;4.95;;;1.10;;
41927;SDS011;27616;51.420;6.788;2022-09-17T09:57:53;8.90;;;1.50;;
41927;SDS011;27616;51.420;6.788;2022-09-17T10:00:27;7.85;;;1.65;;
41927;SDS011;27616;51.420;6.788;2022-09-17T10:05:53;7.22;;;1.60;;
41927;SDS011;27616;51.420;6.788;2022-09-17T10:08:21;8.30;;;1.30;;
41927;SDS011;27616;51.420;6.788;2022-09-17T10:11:02;7.47;;;1.00;;
41927;SDS011;27616;51.420;6.788;2022-09-17T10:13:32;6.30;;;1.80;;
41927;SDS011;27616;51.420;6.788;2022-09-17T10:19:08;8.55;;;2.58;;
41927;SDS011;27616;51.420;6.788;2022-09-17T10:21:36;8.57;;;2.45;;
41927;SDS011;27616;51.420;6.788;2022-09-17T10:27:01;7.82;;;2.13;;
41927;SDS011;27616;51.420;6.788;2022-09-17T10:29:36;8.80;;;1.80;;
41927;SDS011;27616;51.420;6.788;2022-09-17T10:32:18;9.15;;;1.40;;
41927;SDS011;27616;51.420;6.788;2022-09-17T10:34:56;6.13;;;1.40;;
41927;SDS011;27616;51.420;6.788;2022-09-17T10:37:40;8.13;;;1.90;;
41927;SDS011;27616;51.420;6.788;2022-09-17T10:40:30;9.00;;;1.30;;
41927;SDS011;27616;51.420;6.788;2022-09-17T10:45:53;8.50;;;1.65;;
41927;SDS011;27616;51.420;6.788;2022-09-17T10:48:21;8.88;;;3.15;;
41927;SDS011;27616;51.420;6.788;2022-09-17T10:50:51;14.13;;;2.88;;
41927;SDS011;27616;51.420;6.788;2022-09-17T10:56:32;9.95;;;1.40;;
41927;SDS011;27616;51.420;6.788;2022-09-17T11:21:15;3.05;;;0.80;;
41927;SDS011;27616;51.420;6.788;2022-09-17T11:26:46;4.82;;;1.45;;
41927;SDS011;27616;51.420;6.788;2022-09-17T11:34:38;7.38;;;1.85;;
41927;SDS011;27616;51.420;6.788;2022-09-17T11:42:43;5.35;;;1.38;;
41927;SDS011;27616;51.420;6.788;2022-09-17T11:45:16;3.45;;;1.42;;
41927;SDS011;27616;51.420;6.788;2022-09-17T11:48:02;3.33;;;1.10;;
41927;SDS011;27616;51.420;6.788;2022-09-17T11:50:48;4.25;;;1.42;;
41927;SDS011;27616;51.420;6.788;2022-09-17T11:53:27;3.17;;;1.10;;
41927;SDS011;27616;51.420;6.788;2022-09-17T11:59:37;2.80;;;0.80;;
41927;SDS011;27616;51.420;6.788;2022-09-17T12:02:46;2.47;;;0.68;;
41927;SDS011;27616;51.420;6.788;2022-09-17T12:05:19;1.98;;;0.43;;
41927;SDS011;27616;51.420;6.788;2022-09-17T12:07:53;3.53;;;1.00;;
41927;SDS011;27616;51.420;6.788;2022-09-17T12:10:36;4.90;;;1.38;;
41927;SDS011;27616;51.420;6.788;2022-09-17T12:16:06;2.50;;;0.95;;
41927;SDS011;27616;51.420;6.788;2022-09-17T12:18:47;2.65;;;0.95;;
41927;SDS011;27616;51.420;6.788;2022-09-17T12:21:15;2.65;;;0.52;;
41927;SDS011;27616;51.420;6.788;2022-09-17T12:24:21;3.55;;;1.25;;
41927;SDS011;27616;51.420;6.788;2022-09-17T12:29:25;2.10;;;0.50;;
41927;SDS011;27616;51.420;6.788;2022-09-17T12:34:51;6.50;;;2.30;;
41927;SDS011;27616;51.420;6.788;2022-09-17T12:40:50;4.80;;;2.00;;
41927;SDS011;27616;51.420;6.788;2022-09-17T13:00:13;10.07;;;3.35;;
41927;SDS011;27616;51.420;6.788;2022-09-17T13:02:42;9.73;;;3.35;;
41927;SDS011;27616;51.420;6.788;2022-09-17T13:08:13;5.53;;;1.43;;
41927;SDS011;27616;51.420;6.788;2022-09-17T13:18:53;8.32;;;2.60;;
41927;SDS011;27616;51.420;6.788;2022-09-17T13:21:37;6.68;;;2.22;;
41927;SDS011;27616;51.420;6.788;2022-09-17T13:24:31;11.88;;;3.58;;
41927;SDS011;27616;51.420;6.788;2022-09-17T13:26:59;8.15;;;2.70;;
41927;SDS011;27616;51.420;6.788;2022-09-17T13:37:55;7.78;;;1.90;;
41927;SDS011;27616;51.420;6.788;2022-09-17T13:43:15;20.92;;;2.05;;
41927;SDS011;27616;51.420;6.788;2022-09-17T13:48:28;7.97;;;1.45;;
41927;SDS011;27616;51.420;6.788;2022-09-17T13:54:05;6.00;;;1.57;;
41927;SDS011;27616;51.420;6.788;2022-09-17T13:56:35;9.93;;;1.30;;
41927;SDS011;27616;51.420;6.788;2022-09-17T14:01:58;4.33;;;1.13;;
41927;SDS011;27616;51.420;6.788;2022-09-17T14:09:53;6.50;;;1.37;;
41927;SDS011;27616;51.420;6.788;2022-09-17T14:17:57;6.30;;;1.30;;
41927;SDS011;27616;51.420;6.788;2022-09-17T14:20:24;5.63;;;1.13;;
41927;SDS011;27616;51.420;6.788;2022-09-17T14:22:56;5.47;;;1.13;;
41927;SDS011;27616;51.420;6.788;2022-09-17T14:25:35;5.07;;;0.80;;
41927;SDS011;27616;51.420;6.788;2022-09-17T14:28:17;5.07;;;1.43;;
41927;SDS011;27616;51.420;6.788;2022-09-17T14:30:57;9.73;;;3.10;;
41927;SDS011;27616;51.420;6.788;2022-09-17T14:33:27;8.65;;;2.03;;
41927;SDS011;27616;51.420;6.788;2022-09-17T14:36:08;10.13;;;2.00;;
41927;SDS011;27616;51.420;6.788;2022-09-17T14:38:48;7.85;;;1.63;;
41927;SDS011;27616;51.420;6.788;2022-09-17T14:41:24;8.55;;;2.00;;
41927;SDS011;27616;51.420;6.788;2022-09-17T14:43:57;10.82;;;1.98;;
41927;SDS011;27616;51.420;6.788;2022-09-17T14:51:59;4.38;;;1.30;;
41927;SDS011;27616;51.420;6.788;2022-09-17T14:54:29;6.13;;;1.40;;
41927;SDS011;27616;51.420;6.788;2022-09-17T14:56:57;8.07;;;1.58;;
41927;SDS011;27616;51.420;6.788;2022-09-17T15:01:58;10.13;;;1.40;;
41927;SDS011;27616;51.420;6.788;2022-09-17T15:04:25;6.43;;;1.38;;
41927;SDS011;27616;51.420;6.788;2022-09-17T15:06:52;8.70;;;1.08;;
41927;SDS011;27616;51.420;6.788;2022-09-17T15:09:32;4.50;;;1.05;;
41927;SDS011;27616;51.420;6.788;2022-09-17T15:11:58;5.30;;;1.20;;
41927;SDS011;27616;51.420;6.788;2022-09-17T15:14:29;12.48;;;1.65;;
41927;SDS011;27616;51.420;6.788;2022-09-17T15:16:58;5.70;;;0.98;;
41927;SDS011;27616;51.420;6.788;2022-09-17T15:19:36;9.20;;;1.35;;
41927;SDS011;27616;51.420;6.788;2022-09-17T15:22:09;5.53;;;0.82;;
41927;SDS011;27616;51.420;6.788;2022-09-17T15:27:25;6.32;;;1.25;;
41927;SDS011;27616;51.420;6.788;2022-09-17T15:30:10;6.15;;;1.08;;
41927;SDS011;27616;51.420;6.788;2022-09-17T15:32:49;9.10;;;1.35;;
41927;SDS011;27616;51.420;6.788;2022-09-17T15:35:31;4.43;;;0.82;;
41927;SDS011;27616;51.420;6.788;2022-09-17T15:40:33;6.70;;;1.20;;
41927;SDS011;27616;51.420;6.788;2022-09-17T15:43:04;5.35;;;0.90;;
41927;SDS011;27616;51.420;6.788;2022-09-17T15:45:49;7.28;;;1.00;;
41927;SDS011;27616;51.420;6.788;2022-09-17T15:48:48;7.60;;;1.00;;
41927;SDS011;27616;51.420;6.788;2022-09-17T15:51:14;5.88;;;1.10;;
41927;SDS011;27616;51.420;6.788;2022-09-17T15:53:52;5.03;;;1.17;;
41927;SDS011;27616;51.420;6.788;2022-09-17T15:56:25;4.28;;;0.85;;
41927;SDS011;27616;51.420;6.788;2022-09-17T15:58:59;6.88;;;1.27;;
41927;SDS011;27616;51.420;6.788;2022-09-17T16:04:06;6.10;;;1.10;;
41927;SDS011;27616;51.420;6.788;2022-09-17T16:06:47;6.55;;;1.38;;
41927;SDS011;27616;51.420;6.788;2022-09-17T16:09:56;4.05;;;0.80;;
41927;SDS011;27616;51.420;6.788;2022-09-17T16:12:19;7.70;;;1.20;;
41927;SDS011;27616;51.420;6.788;2022-09-17T16:14:53;4.90;;;1.20;;
41927;SDS011;27616;51.420;6.788;2022-09-17T16:17:22;4.95;;;1.30;;
41927;SDS011;27616;51.420;6.788;2022-09-17T16:19:54;3.90;;;1.00;;
41927;SDS011;27616;51.420;6.788;2022-09-17T16:22:20;6.70;;;1.20;;
41927;SDS011;27616;51.420;6.788;2022-09-17T16:24:47;5.05;;;1.20;;
41927;SDS011;27616;51.420;6.788;2022-09-17T16:27:34;5.15;;;1.00;;
41927;SDS011;27616;51.420;6.788;2022-09-17T16:30:05;6.32;;;0.93;;
41927;SDS011;27616;51.420;6.788;2022-09-17T16:32:33;5.53;;;1.17;;
41927;SDS011;27616;51.420;6.788;2022-09-17T16:34:59;6.10;;;1.50;;
41927;SDS011;27616;51.420;6.788;2022-09-17T16:37:25;6.68;;;1.40;;
41927;SDS011;27616;51.420;6.788;2022-09-17T16:39:51;5.85;;;1.55;;
41927;SDS011;27616;51.420;6.788;2022-09-17T16:42:17;5.07;;;1.52;;
41927;SDS011;27616;51.420;6.788;2022-09-17T16:44:43;8.00;;;2.05;;
41927;SDS011;27616;51.420;6.788;2022-09-17T16:47:09;8.75;;;2.28;;
41927;SDS011;27616;51.420;6.788;2022-09-17T16:49:34;7.90;;;1.90;;
41927;SDS011;27616;51.420;6.788;2022-09-17T16:52:00;6.65;;;1.60;;
41927;SDS011;27616;51.420;6.788;2022-09-17T16:54:26;7.18;;;1.45;;
41927;SDS011;27616;51.420;6.788;2022-09-17T16:56:52;9.23;;;2.65;;
41927;SDS011;27616;51.420;6.788;2022-09-17T16:59:18;12.27;;;4.30;;
41927;SDS011;27616;51.420;6.788;2022-09-17T17:01:43;6.47;;;1.77;;
41927;SDS011;27616;51.420;6.788;2022-09-17T17:04:09;8.10;;;1.38;;
41927;SDS011;27616;51.420;6.788;2022-09-17T17:06:35;10.07;;;1.42;;
41927;SDS011;27616;51.420;6.788;2022-09-17T17:09:00;10.13;;;1.65;;
41927;SDS011;27616;51.420;6.788;2022-09-17T17:11:26;10.77;;;2.17;;
41927;SDS011;27616;51.420;6.788;2022-09-17T17:13:55;8.25;;;1.73;;
41927;SDS011;27616;51.420;6.788;2022-09-17T17:16:21;8.75;;;1.85;;
41927;SDS011;27616;51.420;6.788;2022-09-17T17:18:47;5.88;;;1.50;;
41927;SDS011;27616;51.420;6.788;2022-09-17T17:21:15;8.75;;;1.75;;
41927;SDS011;27616;51.420;6.788;2022-09-17T17:23:41;9.55;;;1.92;;
41927;SDS011;27616;51.420;6.788;2022-09-17T17:26:07;9.68;;;1.67;;
41927;SDS011;27616;51.420;6.788;2022-09-17T17:28:33;12.15;;;1.95;;
41927;SDS011;27616;51.420;6.788;2022-09-17T17:31:00;6.88;;;1.40;;
41927;SDS011;27616;51.420;6.788;2022-09-17T17:33:28;7.20;;;1.33;;
41927;SDS011;27616;51.420;6.788;2022-09-17T17:35:54;10.15;;;1.98;;
41927;SDS011;27616;51.420;6.788;2022-09-17T17:38:20;9.98;;;1.63;;
41927;SDS011;27616;51.420;6.788;2022-09-17T17:40:45;16.33;;;2.92;;
41927;SDS011;27616;51.420;6.788;2022-09-17T17:43:11;7.80;;;1.92;;
41927;SDS011;27616;51.420;6.788;2022-09-17T17:45:38;12.23;;;3.17;;
41927;SDS011;27616;51.420;6.788;2022-09-17T17:48:04;11.32;;;3.25;;
41927;SDS011;27616;51.420;6.788;2022-09-17T17:50:30;10.30;;;2.35;;
41927;SDS011;27616;51.420;6.788;2022-09-17T17:52:57;12.63;;;3.13;;
41927;SDS011;27616;51.420;6.788;2022-09-17T17:55:22;10.05;;;2.20;;
41927;SDS011;27616;51.420;6.788;2022-09-17T17:57:56;9.77;;;1.52;;
41927;SDS011;27616;51.420;6.788;2022-09-17T18:00:22;8.15;;;1.45;;
41927;SDS011;27616;51.420;6.788;2022-09-17T18:02:48;16.75;;;3.20;;
41927;SDS011;27616;51.420;6.788;2022-09-17T18:05:15;13.32;;;3.42;;
41927;SDS011;27616;51.420;6.788;2022-09-17T18:07:40;11.45;;;2.28;;
41927;SDS011;27616;51.420;6.788;2022-09-17T18:10:06;8.73;;;2.63;;
41927;SDS011;27616;51.420;6.788;2022-09-17T18:12:32;10.35;;;2.35;;
41927;SDS011;27616;51.420;6.788;2022-09-17T18:14:58;12.70;;;2.30;;
41927;SDS011;27616;51.420;6.788;2022-09-17T18:17:24;11.68;;;2.35;;
41927;SDS011;27616;51.420;6.788;2022-09-17T18:19:49;12.48;;;2.65;;
41927;SDS011;27616;51.420;6.788;2022-09-17T18:22:16;14.20;;;5.22;;
41927;SDS011;27616;51.420;6.788;2022-09-17T18:24:42;14.80;;;4.22;;
41927;SDS011;27616;51.420;6.788;2022-09-17T18:27:08;14.35;;;3.05;;